sensor_id;sensor_type;location;lat;lon;timestamp;pressure;altitude;pressure_sealevel;temperature;humidity
63321;BME280;49449;48.800;9.534;2023-04-02T00:01:22;97774.00;;;8.43;42.29
63321;BME280;49449;48.800;9.534;2023-04-02T00:04:10;97771.16;;;8.44;42.45
63321;BME280;49449;48.800;9.534;2023-04-02T00:06:41;97778.16;;;8.15;42.81
63321;BME280;49449;48.800;9.534;2023-04-02T00:09:39;97791.38;;;7.61;43.85
63321;BME280;49449;48.800;9.534;2023-04-02T00:12:13;97791.72;;;7.65;44.08
63321;BME280;49449;48.800;9.534;2023-04-02T00:14:48;97782.25;;;7.87;43.45
63321;BME280;49449;48.800;9.534;2023-04-02T00:17:19;97781.81;;;7.78;43.65
63321;BME280;49449;48.800;9.534;2023-04-02T00:19:51;97778.16;;;7.79;43.56
63321;BME280;49449;48.800;9.534;2023-04-02T00:22:26;97795.63;;;7.62;43.92
63321;BME280;49449;48.800;9.534;2023-04-02T00:24:55;97793.25;;;7.72;43.79
63321;BME280;49449;48.800;9.534;2023-04-02T00:27:23;97799.09;;;7.44;44.27
63321;BME280;49449;48.800;9.534;2023-04-02T00:29:52;97793.78;;;7.63;44.06
63321;BME280;49449;48.800;9.534;2023-04-02T00:32:23;97801.09;;;7.60;44.10
63321;BME280;49449;48.800;9.534;2023-04-02T00:34:52;97799.28;;;7.31;44.76
63321;BME280;49449;48.800;9.534;2023-04-02T00:37:24;97803.66;;;7.37;44.52
63321;BME280;49449;48.800;9.534;2023-04-02T00:39:57;97800.75;;;7.27;44.78
63321;BME280;49449;48.800;9.534;2023-04-02T00:42:29;97800.38;;;7.53;44.10
63321;BME280;49449;48.800;9.534;2023-04-02T00:45:00;97805.69;;;7.65;43.79
63321;BME280;49449;48.800;9.534;2023-04-02T00:47:31;97790.72;;;7.89;43.44
63321;BME280;49449;48.800;9.534;2023-04-02T00:50:04;97797.38;;;8.04;43.14
63321;BME280;49449;48.800;9.534;2023-04-02T00:52:35;97796.78;;;8.02;43.09
63321;BME280;49449;48.800;9.534;2023-04-02T00:55:07;97800.69;;;8.11;42.90
63321;BME280;49449;48.800;9.534;2023-04-02T00:57:40;97790.75;;;8.13;42.77
63321;BME280;49449;48.800;9.534;2023-04-02T01:00:17;97795.78;;;8.03;42.70
63321;BME280;49449;48.800;9.534;2023-04-02T01:03:13;97800.34;;;7.84;43.33
63321;BME280;49449;48.800;9.534;2023-04-02T01:06:00;97806.97;;;7.74;43.30
63321;BME280;49449;48.800;9.534;2023-04-02T01:08:50;97798.63;;;7.89;43.24
63321;BME280;49449;48.800;9.534;2023-04-02T01:11:31;97808.00;;;7.97;42.80
63321;BME280;49449;48.800;9.534;2023-04-02T01:14:10;97815.09;;;7.85;43.28
63321;BME280;49449;48.800;9.534;2023-04-02T01:16:48;97810.06;;;8.07;42.93
63321;BME280;49449;48.800;9.534;2023-04-02T01:19:42;97821.63;;;8.06;42.73
63321;BME280;49449;48.800;9.534;2023-04-02T01:22:20;97828.28;;;7.96;42.76
63321;BME280;49449;48.800;9.534;2023-04-02T01:24:54;97820.94;;;8.10;42.90
63321;BME280;49449;48.800;9.534;2023-04-02T01:27:26;97822.06;;;8.26;42.59
63321;BME280;49449;48.800;9.534;2023-04-02T01:29:59;97818.19;;;8.29;42.38
63321;BME280;49449;48.800;9.534;2023-04-02T01:32:29;97828.94;;;8.39;42.26
63321;BME280;49449;48.800;9.534;2023-04-02T01:34:57;97825.50;;;8.50;42.03
63321;BME280;49449;48.800;9.534;2023-04-02T01:37:33;97822.50;;;8.59;42.20
63321;BME280;49449;48.800;9.534;2023-04-02T01:40:17;97827.44;;;8.55;42.17
63321;BME280;49449;48.800;9.534;2023-04-02T01:42:52;97832.09;;;8.65;41.95
63321;BME280;49449;48.800;9.534;2023-04-02T01:45:29;97826.50;;;8.73;41.82
63321;BME280;49449;48.800;9.534;2023-04-02T01:47:57;97840.81;;;8.77;41.80
63321;BME280;49449;48.800;9.534;2023-04-02T01:50:27;97835.88;;;8.81;41.79
63321;BME280;49449;48.800;9.534;2023-04-02T01:53:00;97843.44;;;8.77;41.85
63321;BME280;49449;48.800;9.534;2023-04-02T01:55:30;97844.38;;;8.71;42.25
63321;BME280;49449;48.800;9.534;2023-04-02T01:58:00;97849.63;;;8.83;42.07
63321;BME280;49449;48.800;9.534;2023-04-02T02:00:31;97843.88;;;8.86;42.06
63321;BME280;49449;48.800;9.534;2023-04-02T02:03:02;97838.38;;;8.87;42.14
63321;BME280;49449;48.800;9.534;2023-04-02T02:05:31;97839.28;;;8.93;42.14
63321;BME280;49449;48.800;9.534;2023-04-02T02:07:59;97845.94;;;8.96;42.01
63321;BME280;49449;48.800;9.534;2023-04-02T02:10:32;97840.44;;;8.97;41.89
63321;BME280;49449;48.800;9.534;2023-04-02T02:13:01;97850.50;;;9.00;41.95
63321;BME280;49449;48.800;9.534;2023-04-02T02:15:31;97845.00;;;9.02;41.96
63321;BME280;49449;48.800;9.534;2023-04-02T02:18:02;97855.84;;;9.05;41.87
63321;BME280;49449;48.800;9.534;2023-04-02T02:20:32;97858.97;;;9.02;41.55
63321;BME280;49449;48.800;9.534;2023-04-02T02:23:02;97857.59;;;9.00;41.69
63321;BME280;49449;48.800;9.534;2023-04-02T02:25:33;97860.34;;;9.05;41.72
63321;BME280;49449;48.800;9.534;2023-04-02T02:28:04;97866.41;;;9.05;41.75
63321;BME280;49449;48.800;9.534;2023-04-02T02:30:35;97869.50;;;9.02;41.78
63321;BME280;49449;48.800;9.534;2023-04-02T02:33:07;97868.25;;;9.05;41.66
63321;BME280;49449;48.800;9.534;2023-04-02T02:35:43;97873.06;;;9.08;41.64
63321;BME280;49449;48.800;9.534;2023-04-02T02:38:40;97880.13;;;9.07;41.56
63321;BME280;49449;48.800;9.534;2023-04-02T02:41:17;97872.72;;;9.04;41.30
63321;BME280;49449;48.800;9.534;2023-04-02T02:43:53;97877.78;;;8.94;41.97
63321;BME280;49449;48.800;9.534;2023-04-02T02:46:26;97876.16;;;8.93;42.05
63321;BME280;49449;48.800;9.534;2023-04-02T02:48:55;97878.75;;;8.76;42.38
63321;BME280;49449;48.800;9.534;2023-04-02T02:51:28;97882.69;;;8.67;42.64
63321;BME280;49449;48.800;9.534;2023-04-02T02:54:00;97879.50;;;8.65;42.88
63321;BME280;49449;48.800;9.534;2023-04-02T02:56:30;97881.69;;;8.68;42.70
63321;BME280;49449;48.800;9.534;2023-04-02T02:59:04;97880.91;;;8.55;42.84
63321;BME280;49449;48.800;9.534;2023-04-02T03:01:34;97885.59;;;8.65;42.71
63321;BME280;49449;48.800;9.534;2023-04-02T03:04:03;97882.03;;;8.60;42.79
63321;BME280;49449;48.800;9.534;2023-04-02T03:06:31;97889.59;;;8.44;43.19
63321;BME280;49449;48.800;9.534;2023-04-02T03:09:03;97891.88;;;8.52;43.07
63321;BME280;49449;48.800;9.534;2023-04-02T03:11:39;97903.13;;;8.48;43.01
63321;BME280;49449;48.800;9.534;2023-04-02T03:14:17;97903.13;;;8.48;43.20
63321;BME280;49449;48.800;9.534;2023-04-02T03:16:51;97900.38;;;8.43;43.05
63321;BME280;49449;48.800;9.534;2023-04-02T03:19:28;97903.13;;;8.48;43.27
63321;BME280;49449;48.800;9.534;2023-04-02T03:22:02;97909.63;;;8.45;43.48
63321;BME280;49449;48.800;9.534;2023-04-02T03:24:36;97897.47;;;8.56;43.28
63321;BME280;49449;48.800;9.534;2023-04-02T03:27:11;97910.53;;;8.63;43.12
63321;BME280;49449;48.800;9.534;2023-04-02T03:29:42;97911.56;;;8.73;43.08
63321;BME280;49449;48.800;9.534;2023-04-02T03:32:20;97913.31;;;8.80;42.94
63321;BME280;49449;48.800;9.534;2023-04-02T03:34:53;97915.00;;;8.86;42.81
63321;BME280;49449;48.800;9.534;2023-04-02T03:37:25;97916.75;;;8.92;42.87
63321;BME280;49449;48.800;9.534;2023-04-02T03:39:59;97919.16;;;8.94;42.73
63321;BME280;49449;48.800;9.534;2023-04-02T03:42:36;97920.72;;;8.95;42.59
63321;BME280;49449;48.800;9.534;2023-04-02T03:45:12;97922.13;;;8.97;42.64
63321;BME280;49449;48.800;9.534;2023-04-02T03:47:46;97919.47;;;8.97;42.44
63321;BME280;49449;48.800;9.534;2023-04-02T03:50:19;97922.69;;;8.99;42.57
63321;BME280;49449;48.800;9.534;2023-04-02T03:52:49;97926.09;;;9.00;42.43
63321;BME280;49449;48.800;9.534;2023-04-02T03:55:20;97927.22;;;9.04;42.41
63321;BME280;49449;48.800;9.534;2023-04-02T03:57:54;97930.69;;;9.04;42.52
63321;BME280;49449;48.800;9.534;2023-04-02T04:00:30;97930.69;;;9.04;42.33
63321;BME280;49449;48.800;9.534;2023-04-02T04:03:05;97935.72;;;9.06;42.23
63321;BME280;49449;48.800;9.534;2023-04-02T04:05:38;97942.59;;;9.07;42.32
63321;BME280;49449;48.800;9.534;2023-04-02T04:08:15;97938.38;;;9.06;42.30
63321;BME280;49449;48.800;9.534;2023-04-02T04:10:44;97939.06;;;9.01;42.27
63321;BME280;49449;48.800;9.534;2023-04-02T04:13:14;97944.22;;;8.96;42.55
63321;BME280;49449;48.800;9.534;2023-04-02T04:15:50;97953.72;;;8.97;42.41
63321;BME280;49449;48.800;9.534;2023-04-02T04:18:27;97954.06;;;9.01;42.41
63321;BME280;49449;48.800;9.534;2023-04-02T04:21:01;97952.44;;;9.00;42.21
63321;BME280;49449;48.800;9.534;2023-04-02T04:23:31;97960.94;;;9.02;42.25
63321;BME280;49449;48.800;9.534;2023-04-02T04:26:04;97955.44;;;9.03;42.27
63321;BME280;49449;48.800;9.534;2023-04-02T04:28:40;97958.50;;;9.00;42.35
63321;BME280;49449;48.800;9.534;2023-04-02T04:31:16;97968.94;;;8.95;42.59
63321;BME280;49449;48.800;9.534;2023-04-02T04:33:49;97971.47;;;9.02;42.35
63321;BME280;49449;48.800;9.534;2023-04-02T04:36:23;97977.09;;;8.82;42.44
63321;BME280;49449;48.800;9.534;2023-04-02T04:38:56;97967.31;;;8.70;42.67
63321;BME280;49449;48.800;9.534;2023-04-02T04:41:27;97974.41;;;8.58;43.01
63321;BME280;49449;48.800;9.534;2023-04-02T04:43:58;97991.16;;;8.64;43.11
63321;BME280;49449;48.800;9.534;2023-04-02T04:46:30;97991.63;;;8.72;42.76
63321;BME280;49449;48.800;9.534;2023-04-02T04:49:07;97992.84;;;8.70;42.92
63321;BME280;49449;48.800;9.534;2023-04-02T04:51:38;97999.25;;;8.74;42.76
63321;BME280;49449;48.800;9.534;2023-04-02T04:54:11;98005.28;;;8.81;42.68
63321;BME280;49449;48.800;9.534;2023-04-02T04:56:44;98004.81;;;8.84;42.63
63321;BME280;49449;48.800;9.534;2023-04-02T04:59:17;97998.84;;;8.77;42.54
63321;BME280;49449;48.800;9.534;2023-04-02T05:01:52;98007.41;;;8.72;42.46
63321;BME280;49449;48.800;9.534;2023-04-02T05:04:25;98006.72;;;8.53;42.99
63321;BME280;49449;48.800;9.534;2023-04-02T05:07:02;98011.63;;;8.62;42.94
63321;BME280;49449;48.800;9.534;2023-04-02T05:09:35;98016.50;;;8.77;42.76
63321;BME280;49449;48.800;9.534;2023-04-02T05:12:09;98019.47;;;8.80;42.74
63321;BME280;49449;48.800;9.534;2023-04-02T05:14:45;98025.78;;;8.91;42.77
63321;BME280;49449;48.800;9.534;2023-04-02T05:17:19;98029.31;;;8.97;42.40
63321;BME280;49449;48.800;9.534;2023-04-02T05:19:53;98031.84;;;8.91;42.25
63321;BME280;49449;48.800;9.534;2023-04-02T05:22:27;98029.78;;;8.94;42.31
63321;BME280;49449;48.800;9.534;2023-04-02T05:25:06;98036.31;;;8.91;42.47
63321;BME280;49449;48.800;9.534;2023-04-02T05:27:39;98040.19;;;8.77;42.63
63321;BME280;49449;48.800;9.534;2023-04-02T05:30:30;98044.03;;;8.62;43.02
63321;BME280;49449;48.800;9.534;2023-04-02T05:33:05;98038.50;;;8.40;43.61
63321;BME280;49449;48.800;9.534;2023-04-02T05:35:42;98046.59;;;8.39;43.47
63321;BME280;49449;48.800;9.534;2023-04-02T05:38:18;98048.56;;;8.43;43.35
63321;BME280;49449;48.800;9.534;2023-04-02T05:40:50;98048.78;;;8.42;43.68
63321;BME280;49449;48.800;9.534;2023-04-02T05:43:23;98046.94;;;8.30;43.70
63321;BME280;49449;48.800;9.534;2023-04-02T05:45:53;98041.34;;;8.39;43.73
63321;BME280;49449;48.800;9.534;2023-04-02T05:48:26;98054.06;;;8.42;43.52
63321;BME280;49449;48.800;9.534;2023-04-02T05:50:56;98053.50;;;8.40;43.61
63321;BME280;49449;48.800;9.534;2023-04-02T05:53:27;98058.56;;;8.23;44.19
63321;BME280;49449;48.800;9.534;2023-04-02T05:56:02;98065.31;;;8.19;44.28
63321;BME280;49449;48.800;9.534;2023-04-02T05:58:34;98073.03;;;8.32;44.06
63321;BME280;49449;48.800;9.534;2023-04-02T06:01:15;98074.09;;;8.43;43.88
63321;BME280;49449;48.800;9.534;2023-04-02T06:03:51;98075.69;;;8.44;44.00
63321;BME280;49449;48.800;9.534;2023-04-02T06:06:39;98083.06;;;8.53;43.88
63321;BME280;49449;48.800;9.534;2023-04-02T06:09:12;98085.25;;;8.68;43.51
63321;BME280;49449;48.800;9.534;2023-04-02T06:11:44;98085.75;;;8.77;43.33
63321;BME280;49449;48.800;9.534;2023-04-02T06:14:15;98085.44;;;8.85;42.86
63321;BME280;49449;48.800;9.534;2023-04-02T06:16:44;98090.00;;;8.90;43.23
63321;BME280;49449;48.800;9.534;2023-04-02T06:19:16;98089.91;;;8.97;43.27
63321;BME280;49449;48.800;9.534;2023-04-02T06:21:48;98096.09;;;9.02;43.13
63321;BME280;49449;48.800;9.534;2023-04-02T06:24:19;98099.69;;;9.08;42.96
63321;BME280;49449;48.800;9.534;2023-04-02T06:26:51;98102.53;;;9.06;42.75
63321;BME280;49449;48.800;9.534;2023-04-02T06:29:26;98104.38;;;9.06;42.70
63321;BME280;49449;48.800;9.534;2023-04-02T06:32:00;98101.84;;;9.11;42.76
63321;BME280;49449;48.800;9.534;2023-04-02T06:34:29;98108.94;;;9.10;42.61
63321;BME280;49449;48.800;9.534;2023-04-02T06:37:01;98112.72;;;9.15;42.48
63321;BME280;49449;48.800;9.534;2023-04-02T06:39:30;98123.03;;;9.16;42.49
63321;BME280;49449;48.800;9.534;2023-04-02T06:42:00;98128.31;;;9.16;42.23
63321;BME280;49449;48.800;9.534;2023-04-02T06:44:31;98132.22;;;9.14;42.28
63321;BME280;49449;48.800;9.534;2023-04-02T06:47:03;98130.50;;;9.19;42.19
63321;BME280;49449;48.800;9.534;2023-04-02T06:49:37;98137.16;;;9.22;42.14
63321;BME280;49449;48.800;9.534;2023-04-02T06:52:12;98141.38;;;9.23;42.16
63321;BME280;49449;48.800;9.534;2023-04-02T06:54:41;98139.19;;;9.20;42.12
63321;BME280;49449;48.800;9.534;2023-04-02T06:57:11;98156.53;;;9.27;42.25
63321;BME280;49449;48.800;9.534;2023-04-02T06:59:39;98161.69;;;9.34;42.19
63321;BME280;49449;48.800;9.534;2023-04-02T07:02:22;98150.91;;;9.36;41.90
63321;BME280;49449;48.800;9.534;2023-04-02T07:04:55;98166.50;;;9.37;41.79
63321;BME280;49449;48.800;9.534;2023-04-02T07:07:26;98167.75;;;9.35;41.90
63321;BME280;49449;48.800;9.534;2023-04-02T07:09:54;98176.34;;;9.30;41.73
63321;BME280;49449;48.800;9.534;2023-04-02T07:12:23;98178.84;;;9.25;41.93
63321;BME280;49449;48.800;9.534;2023-04-02T07:14:51;98181.41;;;9.32;41.76
63321;BME280;49449;48.800;9.534;2023-04-02T07:17:20;98177.63;;;9.27;41.89
63321;BME280;49449;48.800;9.534;2023-04-02T07:19:48;98182.53;;;9.24;41.80
63321;BME280;49449;48.800;9.534;2023-04-02T07:22:17;98183.69;;;9.28;41.96
63321;BME280;49449;48.800;9.534;2023-04-02T07:24:46;98184.00;;;9.20;41.93
63321;BME280;49449;48.800;9.534;2023-04-02T07:27:14;98191.69;;;9.09;42.00
63321;BME280;49449;48.800;9.534;2023-04-02T07:29:42;98190.91;;;9.21;42.29
63321;BME280;49449;48.800;9.534;2023-04-02T07:32:11;98193.34;;;9.34;42.15
63321;BME280;49449;48.800;9.534;2023-04-02T07:34:39;98193.78;;;9.43;41.57
63321;BME280;49449;48.800;9.534;2023-04-02T07:37:08;98202.50;;;9.43;41.71
63321;BME280;49449;48.800;9.534;2023-04-02T07:39:39;98203.75;;;9.41;41.72
63321;BME280;49449;48.800;9.534;2023-04-02T07:42:08;98209.50;;;9.38;41.83
63321;BME280;49449;48.800;9.534;2023-04-02T07:44:36;98206.97;;;9.31;41.83
63321;BME280;49449;48.800;9.534;2023-04-02T07:47:04;98209.91;;;9.23;41.99
63321;BME280;49449;48.800;9.534;2023-04-02T07:49:32;98216.25;;;9.34;42.20
63321;BME280;49449;48.800;9.534;2023-04-02T07:52:00;98215.47;;;9.45;42.05
63321;BME280;49449;48.800;9.534;2023-04-02T07:54:28;98225.00;;;9.58;41.83
63321;BME280;49449;48.800;9.534;2023-04-02T07:56:56;98227.53;;;9.64;41.82
63321;BME280;49449;48.800;9.534;2023-04-02T07:59:25;98229.22;;;9.71;41.69
63321;BME280;49449;48.800;9.534;2023-04-02T08:01:53;98232.66;;;9.71;41.63
63321;BME280;49449;48.800;9.534;2023-04-02T08:04:22;98237.50;;;9.74;41.29
63321;BME280;49449;48.800;9.534;2023-04-02T08:06:49;98233.38;;;9.66;41.55
63321;BME280;49449;48.800;9.534;2023-04-02T08:09:18;98239.22;;;9.68;41.71
63321;BME280;49449;48.800;9.534;2023-04-02T08:11:45;98241.97;;;9.74;41.65
63321;BME280;49449;48.800;9.534;2023-04-02T08:14:13;98244.28;;;9.82;42.09
63321;BME280;49449;48.800;9.534;2023-04-02T08:16:47;98241.53;;;9.89;41.93
63321;BME280;49449;48.800;9.534;2023-04-02T08:19:16;98254.38;;;9.97;41.47
63321;BME280;49449;48.800;9.534;2023-04-02T08:21:44;98253.03;;;9.94;41.54
63321;BME280;49449;48.800;9.534;2023-04-02T08:24:13;98258.38;;;9.99;41.35
63321;BME280;49449;48.800;9.534;2023-04-02T08:26:43;98263.78;;;10.04;41.26
63321;BME280;49449;48.800;9.534;2023-04-02T08:29:11;98267.03;;;10.07;41.27
63321;BME280;49449;48.800;9.534;2023-04-02T08:31:38;98273.22;;;10.12;41.12
63321;BME280;49449;48.800;9.534;2023-04-02T08:34:08;98272.41;;;10.00;40.69
63321;BME280;49449;48.800;9.534;2023-04-02T08:36:37;98274.59;;;10.03;41.31
63321;BME280;49449;48.800;9.534;2023-04-02T08:39:07;98275.28;;;10.10;41.12
63321;BME280;49449;48.800;9.534;2023-04-02T08:41:37;98282.63;;;9.96;40.81
63321;BME280;49449;48.800;9.534;2023-04-02T08:47:04;98289.50;;;9.85;41.36
63321;BME280;49449;48.800;9.534;2023-04-02T08:49:38;98287.06;;;9.96;41.02
63321;BME280;49449;48.800;9.534;2023-04-02T08:52:19;98287.09;;;10.08;40.68
63321;BME280;49449;48.800;9.534;2023-04-02T08:54:48;98291.81;;;10.17;40.76
63321;BME280;49449;48.800;9.534;2023-04-02T08:57:25;98298.00;;;10.23;40.65
63321;BME280;49449;48.800;9.534;2023-04-02T08:59:59;98305.13;;;10.22;40.82
63321;BME280;49449;48.800;9.534;2023-04-02T09:02:36;98306.13;;;10.10;40.39
63321;BME280;49449;48.800;9.534;2023-04-02T09:05:15;98308.56;;;9.88;41.25
63321;BME280;49449;48.800;9.534;2023-04-02T09:07:44;98313.94;;;10.04;40.97
63321;BME280;49449;48.800;9.534;2023-04-02T09:10:14;98312.09;;;10.17;40.96
63321;BME280;49449;48.800;9.534;2023-04-02T09:12:45;98321.53;;;10.24;40.82
63321;BME280;49449;48.800;9.534;2023-04-02T09:15:17;98319.78;;;10.30;40.77
63321;BME280;49449;48.800;9.534;2023-04-02T09:17:52;98323.00;;;10.20;40.20
63321;BME280;49449;48.800;9.534;2023-04-02T09:20:26;98327.81;;;10.23;40.86
63321;BME280;49449;48.800;9.534;2023-04-02T09:22:55;98332.53;;;10.33;40.91
63321;BME280;49449;48.800;9.534;2023-04-02T09:25:25;98329.53;;;10.41;40.57
63321;BME280;49449;48.800;9.534;2023-04-02T09:27:55;98334.03;;;10.41;40.22
63321;BME280;49449;48.800;9.534;2023-04-02T09:30:32;98347.91;;;10.36;40.57
63321;BME280;49449;48.800;9.534;2023-04-02T09:33:07;98342.84;;;10.47;40.57
63321;BME280;49449;48.800;9.534;2023-04-02T09:35:53;98345.72;;;10.57;40.38
63321;BME280;49449;48.800;9.534;2023-04-02T09:38:23;98352.00;;;10.68;40.32
63321;BME280;49449;48.800;9.534;2023-04-02T09:40:57;98355.09;;;10.76;40.26
63321;BME280;49449;48.800;9.534;2023-04-02T09:43:27;98354.63;;;10.79;39.96
63321;BME280;49449;48.800;9.534;2023-04-02T09:45:58;98354.41;;;10.81;40.02
63321;BME280;49449;48.800;9.534;2023-04-02T09:48:27;98357.19;;;10.86;39.77
63321;BME280;49449;48.800;9.534;2023-04-02T09:51:09;98366.72;;;10.87;39.53
63321;BME280;49449;48.800;9.534;2023-04-02T09:53:38;98362.91;;;10.95;39.60
63321;BME280;49449;48.800;9.534;2023-04-02T09:56:10;98366.00;;;11.04;39.62
63321;BME280;49449;48.800;9.534;2023-04-02T09:58:39;98369.91;;;11.01;39.79
63321;BME280;49449;48.800;9.534;2023-04-02T10:01:24;98374.38;;;11.00;39.37
63321;BME280;49449;48.800;9.534;2023-04-02T10:03:54;98381.75;;;10.98;39.07
63321;BME280;49449;48.800;9.534;2023-04-02T10:06:24;98370.94;;;11.00;39.29
63321;BME280;49449;48.800;9.534;2023-04-02T10:08:52;98384.13;;;11.12;39.27
63321;BME280;49449;48.800;9.534;2023-04-02T10:11:23;98377.91;;;11.18;39.31
63321;BME280;49449;48.800;9.534;2023-04-02T10:13:58;98386.16;;;11.22;39.25
63321;BME280;49449;48.800;9.534;2023-04-02T10:16:30;98385.34;;;11.21;39.53
63321;BME280;49449;48.800;9.534;2023-04-02T10:19:01;98386.84;;;11.29;38.79
63321;BME280;49449;48.800;9.534;2023-04-02T10:21:35;98392.22;;;11.34;38.84
63321;BME280;49449;48.800;9.534;2023-04-02T10:24:09;98392.88;;;11.41;38.86
63321;BME280;49449;48.800;9.534;2023-04-02T10:26:46;98398.72;;;11.43;39.05
63321;BME280;49449;48.800;9.534;2023-04-02T10:29:27;98398.03;;;11.48;38.45
63321;BME280;49449;48.800;9.534;2023-04-02T10:32:04;98399.91;;;11.35;39.12
63321;BME280;49449;48.800;9.534;2023-04-02T10:34:41;98399.84;;;11.47;38.70
63321;BME280;49449;48.800;9.534;2023-04-02T10:40:10;98405.47;;;11.51;38.54
63321;BME280;49449;48.800;9.534;2023-04-02T10:42:43;98401.25;;;11.50;38.06
63321;BME280;49449;48.800;9.534;2023-04-02T10:45:20;98405.19;;;11.64;38.32
63321;BME280;49449;48.800;9.534;2023-04-02T10:47:56;98404.72;;;11.67;38.40
63321;BME280;49449;48.800;9.534;2023-04-02T10:50:31;98404.09;;;11.77;38.80
63321;BME280;49449;48.800;9.534;2023-04-02T10:53:08;98404.78;;;11.84;38.05
63321;BME280;49449;48.800;9.534;2023-04-02T10:55:42;98406.31;;;11.97;37.84
63321;BME280;49449;48.800;9.534;2023-04-02T10:58:21;98407.84;;;12.10;37.62
63321;BME280;49449;48.800;9.534;2023-04-02T11:00:53;98403.84;;;12.24;36.72
63321;BME280;49449;48.800;9.534;2023-04-02T11:03:28;98411.94;;;12.18;37.07
63321;BME280;49449;48.800;9.534;2023-04-02T11:06:01;98410.91;;;12.19;37.72
63321;BME280;49449;48.800;9.534;2023-04-02T11:08:38;98416.53;;;12.22;37.50
63321;BME280;49449;48.800;9.534;2023-04-02T11:11:11;98420.03;;;12.28;37.04
63321;BME280;49449;48.800;9.534;2023-04-02T11:13:48;98421.34;;;12.25;37.43
63321;BME280;49449;48.800;9.534;2023-04-02T11:16:18;98423.25;;;12.30;36.79
63321;BME280;49449;48.800;9.534;2023-04-02T11:19:22;98418.53;;;12.15;37.38
63321;BME280;49449;48.800;9.534;2023-04-02T11:21:51;98418.34;;;12.22;37.06
63321;BME280;49449;48.800;9.534;2023-04-02T11:24:34;98423.41;;;12.23;36.72
63321;BME280;49449;48.800;9.534;2023-04-02T11:27:05;98431.59;;;12.22;36.95
63321;BME280;49449;48.800;9.534;2023-04-02T11:29:35;98431.59;;;12.22;37.27
63321;BME280;49449;48.800;9.534;2023-04-02T11:32:26;98428.38;;;12.20;37.39
63321;BME280;49449;48.800;9.534;2023-04-02T11:37:59;98448.13;;;12.12;36.97
63321;BME280;49449;48.800;9.534;2023-04-02T11:40:48;98440.66;;;12.09;37.48
63321;BME280;49449;48.800;9.534;2023-04-02T11:43:48;98443.78;;;12.06;37.77
63321;BME280;49449;48.800;9.534;2023-04-02T11:46:39;98452.94;;;11.98;37.97
63321;BME280;49449;48.800;9.534;2023-04-02T11:49:37;98450.38;;;12.03;38.19
63321;BME280;49449;48.800;9.534;2023-04-02T11:52:21;98451.47;;;12.07;37.82
63321;BME280;49449;48.800;9.534;2023-04-02T11:54:55;98455.28;;;12.11;37.67
63321;BME280;49449;48.800;9.534;2023-04-02T11:57:39;98463.84;;;12.02;36.60
63321;BME280;49449;48.800;9.534;2023-04-02T12:00:22;98467.03;;;11.87;37.33
63321;BME280;49449;48.800;9.534;2023-04-02T12:03:03;98462.63;;;11.92;37.79
63321;BME280;49449;48.800;9.534;2023-04-02T12:05:39;98461.97;;;12.02;37.46
63321;BME280;49449;48.800;9.534;2023-04-02T12:08:19;98464.63;;;12.02;37.71
63321;BME280;49449;48.800;9.534;2023-04-02T12:10:53;98463.69;;;12.08;37.54
63321;BME280;49449;48.800;9.534;2023-04-02T12:13:51;98463.22;;;12.11;37.52
63321;BME280;49449;48.800;9.534;2023-04-02T12:16:20;98464.91;;;12.18;37.67
63321;BME280;49449;48.800;9.534;2023-04-02T12:18:50;98463.00;;;12.13;37.77
63321;BME280;49449;48.800;9.534;2023-04-02T12:21:24;98468.53;;;12.11;38.21
63321;BME280;49449;48.800;9.534;2023-04-02T12:23:53;98467.53;;;12.18;37.34
63321;BME280;49449;48.800;9.534;2023-04-02T12:26:34;98469.72;;;12.21;37.52
63321;BME280;49449;48.800;9.534;2023-04-02T12:29:21;98471.59;;;12.20;37.56
63321;BME280;49449;48.800;9.534;2023-04-02T12:31:50;98472.69;;;12.24;37.69
63321;BME280;49449;48.800;9.534;2023-04-02T12:34:20;98475.13;;;12.26;37.42
63321;BME280;49449;48.800;9.534;2023-04-02T12:36:51;98487.88;;;12.29;37.64
63321;BME280;49449;48.800;9.534;2023-04-02T12:39:19;98479.94;;;12.29;37.32
63321;BME280;49449;48.800;9.534;2023-04-02T12:41:47;98489.22;;;12.31;37.25
63321;BME280;49449;48.800;9.534;2023-04-02T12:44:18;98491.09;;;12.31;37.33
63321;BME280;49449;48.800;9.534;2023-04-02T12:46:48;98502.41;;;12.26;37.91
63321;BME280;49449;48.800;9.534;2023-04-02T12:49:32;98495.97;;;12.22;37.79
63321;BME280;49449;48.800;9.534;2023-04-02T12:52:02;98496.53;;;12.24;37.76
63321;BME280;49449;48.800;9.534;2023-04-02T12:54:34;98494.50;;;12.14;37.84
63321;BME280;49449;48.800;9.534;2023-04-02T12:57:33;98502.66;;;11.96;38.70
63321;BME280;49449;48.800;9.534;2023-04-02T13:00:30;98504.88;;;11.87;38.74
63321;BME280;49449;48.800;9.534;2023-04-02T13:03:16;98505.69;;;11.88;39.25
63321;BME280;49449;48.800;9.534;2023-04-02T13:05:47;98508.22;;;11.83;38.58
63321;BME280;49449;48.800;9.534;2023-04-02T13:08:18;98510.66;;;11.84;38.96
63321;BME280;49449;48.800;9.534;2023-04-02T13:10:52;98518.59;;;11.84;39.35
63321;BME280;49449;48.800;9.534;2023-04-02T13:13:24;98515.59;;;11.81;38.45
63321;BME280;49449;48.800;9.534;2023-04-02T13:16:06;98518.28;;;11.69;39.63
63321;BME280;49449;48.800;9.534;2023-04-02T13:18:49;98517.94;;;11.65;39.89
63321;BME280;49449;48.800;9.534;2023-04-02T13:21:24;98524.63;;;11.56;40.26
63321;BME280;49449;48.800;9.534;2023-04-02T13:23:54;98530.78;;;11.45;40.41
63321;BME280;49449;48.800;9.534;2023-04-02T13:26:23;98528.47;;;11.48;40.27
63321;BME280;49449;48.800;9.534;2023-04-02T13:28:59;98532.69;;;11.49;40.58
63321;BME280;49449;48.800;9.534;2023-04-02T13:31:30;98532.69;;;11.49;40.18
63321;BME280;49449;48.800;9.534;2023-04-02T13:33:58;98542.03;;;11.40;40.61
63321;BME280;49449;48.800;9.534;2023-04-02T13:36:27;98541.00;;;11.41;40.95
63321;BME280;49449;48.800;9.534;2023-04-02T13:38:54;98539.97;;;11.42;41.05
63321;BME280;49449;48.800;9.534;2023-04-02T13:41:24;98547.66;;;11.44;41.18
63321;BME280;49449;48.800;9.534;2023-04-02T13:43:53;98555.81;;;11.42;41.35
63321;BME280;49449;48.800;9.534;2023-04-02T13:46:24;98547.44;;;11.33;41.42
63321;BME280;49449;48.800;9.534;2023-04-02T13:48:53;98552.72;;;11.33;41.52
63321;BME280;49449;48.800;9.534;2023-04-02T13:51:24;98559.19;;;11.14;41.44